Time;durP1;ratioP1;P1;durP2;ratioP2;P2;SDS_P1;SDS_P2;PMS_P1;PMS_P2;Temp;Humidity;BMP_temperature;BMP_pressure;BME280_temperature;BME280_humidity;BME280_pressure;Samples;Min_cycle;Max_cycle;Signal;HPM_P1;HPM_P2
2021/04/23 00:01:36;;;;;;;15.93;11.00;;;;;;;11.93;100.00;101616.69;4933135;29;20256;-76
2021/04/23 00:04:05;;;;;;;18.97;11.13;;;;;;;11.97;100.00;101611.28;4933240;29;20192;-75
2021/04/23 00:06:42;;;;;;;16.80;11.37;;;;;;;11.98;100.00;101610.34;4932822;29;20212;-76
2021/04/23 00:09:15;;;;;;;14.00;9.83;;;;;;;11.91;100.00;101609.84;4932149;29;20476;-73
2021/04/23 00:11:51;;;;;;;18.63;12.27;;;;;;;11.94;100.00;101607.91;4933324;29;21043;-74
2021/04/23 00:14:20;;;;;;;15.87;10.63;;;;;;;11.92;100.00;101607.13;4934475;29;20432;-77
2021/04/23 00:16:46;;;;;;;20.60;11.80;;;;;;;11.92;100.00;101609.75;4955763;29;20507;-76
2021/04/23 00:19:17;;;;;;;15.93;10.77;;;;;;;11.92;100.00;101606.25;4935610;29;20420;-74
2021/04/23 00:21:44;;;;;;;15.00;10.23;;;;;;;11.87;100.00;101603.06;4935137;29;21201;-74
2021/04/23 00:24:10;;;;;;;18.53;10.90;;;;;;;11.89;100.00;101611.72;4936063;29;20424;-75
2021/04/23 00:26:36;;;;;;;17.53;10.97;;;;;;;11.95;100.00;101608.75;4936376;29;20401;-73
2021/04/23 00:29:02;;;;;;;19.80;11.17;;;;;;;11.98;100.00;101605.06;4935990;29;20479;-73
2021/04/23 00:31:28;;;;;;;15.90;10.03;;;;;;;11.93;100.00;101605.31;4935353;29;20424;-73
2021/04/23 00:33:53;;;;;;;16.93;10.77;;;;;;;11.92;100.00;101604.47;4936682;29;20382;-74
2021/04/23 00:36:19;;;;;;;34.77;11.20;;;;;;;11.92;100.00;101598.38;4936575;29;20176;-74
2021/04/23 00:38:45;;;;;;;16.17;10.90;;;;;;;11.92;100.00;101598.38;4936431;29;20164;-74
2021/04/23 00:41:13;;;;;;;15.63;10.20;;;;;;;11.92;100.00;101601.84;4936860;29;20676;-74
2021/04/23 00:43:45;;;;;;;22.07;10.67;;;;;;;11.90;100.00;101595.81;4935940;29;20182;-74
2021/04/23 00:46:12;;;;;;;18.80;9.80;;;;;;;11.87;100.00;101601.28;4934824;29;20449;-74
2021/04/23 00:48:46;;;;;;;20.80;10.60;;;;;;;11.90;100.00;101597.63;4936428;29;20420;-74
2021/04/23 00:51:21;;;;;;;20.57;9.57;;;;;;;11.92;100.00;101596.56;4936700;29;20397;-74
2021/04/23 00:53:51;;;;;;;15.93;8.30;;;;;;;11.88;100.00;101576.66;4936162;29;20452;-74
2021/04/23 00:56:22;;;;;;;16.87;9.23;;;;;;;11.89;100.00;101578.34;4936456;29;21048;-76
2021/04/23 00:58:48;;;;;;;15.70;9.57;;;;;;;11.87;100.00;101585.50;4936255;29;20500;-73
2021/04/23 01:01:18;;;;;;;14.30;8.87;;;;;;;11.83;100.00;101585.75;4935261;29;20467;-74
2021/04/23 01:03:43;;;;;;;14.03;9.03;;;;;;;11.80;100.00;101584.16;4936162;29;20413;-74
2021/04/23 01:06:18;;;;;;;13.47;8.70;;;;;;;11.77;100.00;101576.38;4935224;29;20505;-75
2021/04/23 01:08:45;;;;;;;14.47;9.00;;;;;;;11.82;100.00;101577.00;4936692;29;20168;-75
2021/04/23 01:11:11;;;;;;;12.77;8.53;;;;;;;11.81;100.00;101577.94;4935825;29;20472;-75
2021/04/23 01:13:37;;;;;;;17.93;8.80;;;;;;;11.83;100.00;101583.94;4935924;29;20499;-74
2021/04/23 01:16:12;;;;;;;13.70;8.90;;;;;;;11.84;100.00;101579.53;4935588;29;20997;-74
2021/04/23 01:18:39;;;;;;;12.70;8.47;;;;;;;11.85;100.00;101581.22;4935057;29;20419;-75
2021/04/23 01:21:14;;;;;;;14.70;8.90;;;;;;;11.83;100.00;101581.31;4935738;29;20868;-73
2021/04/23 01:23:42;;;;;;;13.30;8.50;;;;;;;11.91;100.00;101575.59;4935044;29;20396;-75
2021/04/23 01:26:10;;;;;;;16.77;9.80;;;;;;;11.91;100.00;101576.44;4935397;29;20388;-75
2021/04/23 01:28:38;;;;;;;20.97;9.63;;;;;;;11.93;100.00;101574.56;4935550;29;20421;-73
2021/04/23 01:31:06;;;;;;;16.23;9.30;;;;;;;11.91;100.00;101570.34;4935592;29;20793;-77
2021/04/23 01:33:36;;;;;;;15.17;9.13;;;;;;;12.01;100.00;101575.91;4935490;29;20909;-74
2021/04/23 01:36:03;;;;;;;13.07;8.53;;;;;;;12.06;100.00;101568.59;4935666;29;20397;-73
2021/04/23 01:38:28;;;;;;;17.50;8.73;;;;;;;12.08;100.00;101577.22;4935616;29;20541;-74
2021/04/23 01:40:54;;;;;;;13.47;8.77;;;;;;;12.09;100.00;101576.28;4942859;29;20464;-74
2021/04/23 01:43:20;;;;;;;13.10;9.20;;;;;;;12.09;100.00;101571.03;4935551;29;20216;-74
2021/04/23 01:45:46;;;;;;;16.80;8.70;;;;;;;12.08;100.00;101566.69;4934129;29;20635;-75
2021/04/23 01:48:14;;;;;;;13.70;9.10;;;;;;;12.15;100.00;101571.50;4935050;29;20677;-74
2021/04/23 01:50:40;;;;;;;12.67;7.90;;;;;;;12.09;100.00;101573.66;4933532;29;20421;-75
2021/04/23 01:53:06;;;;;;;14.97;8.80;;;;;;;12.07;100.00;101567.63;4935502;29;20417;-74
2021/04/23 01:55:32;;;;;;;15.70;8.77;;;;;;;12.07;100.00;101579.03;4933940;29;20224;-74
2021/04/23 01:57:58;;;;;;;16.47;9.00;;;;;;;12.09;100.00;101579.81;4934935;29;20789;-74
2021/04/23 02:00:34;;;;;;;16.23;9.67;;;;;;;12.05;100.00;101588.81;4934214;29;20425;-74
2021/04/23 02:03:02;;;;;;;14.07;9.13;;;;;;;12.10;100.00;101578.84;4934456;29;20188;-77
2021/04/23 02:05:28;;;;;;;17.33;8.70;;;;;;;12.11;100.00;101577.06;4935284;29;20944;-76
2021/04/23 02:07:55;;;;;;;13.97;10.00;;;;;;;12.10;100.00;101580.66;4934843;29;20448;-76
2021/04/23 02:10:26;;;;;;;13.40;9.27;;;;;;;12.12;100.00;101576.97;4934660;29;20445;-76
2021/04/23 02:12:52;;;;;;;14.47;9.03;;;;;;;12.11;100.00;101577.06;4934515;29;20413;-74
2021/04/23 02:15:19;;;;;;;14.13;9.10;;;;;;;12.12;100.00;101565.59;4934865;29;20476;-75
2021/04/23 02:17:45;;;;;;;20.67;10.30;;;;;;;12.12;100.00;101571.69;4934012;29;20476;-73
2021/04/23 02:20:22;;;;;;;21.50;9.33;;;;;;;12.18;100.00;101570.50;4934555;29;20555;-75
2021/04/23 02:22:48;;;;;;;14.47;9.37;;;;;;;12.20;100.00;101563.34;4933420;29;20944;-75
2021/04/23 02:25:16;;;;;;;14.17;8.27;;;;;;;12.21;100.00;101567.66;4933276;29;20429;-73
2021/04/23 02:27:42;;;;;;;13.83;8.87;;;;;;;12.18;100.00;101570.50;4934227;29;20409;-74
2021/04/23 02:30:12;;;;;;;17.00;8.53;;;;;;;12.26;100.00;101562.13;4933614;29;20448;-73
2021/04/23 02:32:39;;;;;;;11.37;7.97;;;;;;;12.29;100.00;101560.13;4934858;29;20401;-74
2021/04/23 02:35:07;;;;;;;15.47;8.63;;;;;;;12.29;100.00;101565.41;4934847;29;20405;-73
2021/04/23 02:37:34;;;;;;;14.90;8.67;;;;;;;12.30;100.00;101563.63;4933709;29;20420;-72
2021/04/23 02:40:00;;;;;;;12.03;8.10;;;;;;;12.33;100.00;101559.03;4933610;29;20967;-73
2021/04/23 02:42:26;;;;;;;14.20;8.70;;;;;;;12.24;100.00;101564.84;4934097;29;21282;-74
2021/04/23 02:44:52;;;;;;;13.63;8.30;;;;;;;12.30;100.00;101564.47;4933219;29;20445;-73
2021/04/23 02:47:17;;;;;;;13.43;8.60;;;;;;;12.31;100.00;101568.78;4934338;29;20165;-73
2021/04/23 02:49:43;;;;;;;12.77;8.00;;;;;;;12.36;100.00;101557.97;4934293;29;20172;-73
2021/04/23 02:52:08;;;;;;;11.50;7.80;;;;;;;12.40;100.00;101568.25;4934217;29;20373;-73
2021/04/23 02:54:34;;;;;;;11.47;7.40;;;;;;;12.38;100.00;101562.22;4933887;29;20279;-72
2021/04/23 02:57:00;;;;;;;13.23;8.10;;;;;;;12.43;100.00;101560.16;4933774;29;20177;-72
2021/04/23 02:59:25;;;;;;;11.47;7.83;;;;;;;12.43;100.00;101548.75;4932658;29;20169;-73
2021/04/23 03:01:55;;;;;;;11.13;7.47;;;;;;;12.45;100.00;101557.41;4933757;29;20347;-72
2021/04/23 03:04:21;;;;;;;18.10;7.93;;;;;;;12.45;100.00;101553.00;4934009;29;20157;-75
2021/04/23 03:06:47;;;;;;;13.40;7.83;;;;;;;12.46;100.00;101561.75;4933048;29;20413;-73
2021/04/23 03:09:13;;;;;;;14.70;8.17;;;;;;;12.48;100.00;101551.97;4933624;29;20440;-73
2021/04/23 03:11:40;;;;;;;10.47;7.47;;;;;;;12.49;100.00;101556.28;4934135;29;20162;-73
2021/04/23 03:14:07;;;;;;;11.47;8.30;;;;;;;12.50;100.00;101561.47;4933882;29;20425;-74
2021/04/23 03:16:34;;;;;;;10.57;7.20;;;;;;;12.51;100.00;101559.69;4932739;29;20413;-74
2021/04/23 03:19:00;;;;;;;13.47;7.80;;;;;;;12.50;100.00;101564.09;4933289;29;20480;-73
2021/04/23 03:21:28;;;;;;;10.10;7.10;;;;;;;12.56;100.00;101575.22;4933585;29;20460;-73
2021/04/23 03:23:54;;;;;;;11.97;7.33;;;;;;;12.63;100.00;101574.75;4926556;29;20185;-74
2021/04/23 03:26:21;;;;;;;18.67;8.93;;;;;;;12.59;100.00;101572.38;4931908;29;20516;-75
2021/04/23 03:28:47;;;;;;;17.60;7.90;;;;;;;12.63;100.00;101563.38;4933418;29;20161;-74
2021/04/23 03:31:13;;;;;;;20.27;8.90;;;;;;;12.60;100.00;101568.81;4933837;29;20460;-74
2021/04/23 03:33:40;;;;;;;18.63;8.63;;;;;;;12.64;100.00;101565.91;4933593;29;20504;-74
2021/04/23 03:36:09;;;;;;;13.57;8.47;;;;;;;12.70;100.00;101562.88;4933519;29;20432;-74
2021/04/23 03:38:36;;;;;;;24.07;10.43;;;;;;;12.67;100.00;101564.84;4933325;29;20423;-74
2021/04/23 03:41:09;;;;;;;11.97;7.57;;;;;;;12.75;100.00;101570.47;4933617;29;20840;-75
2021/04/23 03:43:35;;;;;;;11.13;7.50;;;;;;;12.72;100.00;101576.81;4933933;29;20492;-73
2021/04/23 03:46:01;;;;;;;12.77;8.37;;;;;;;12.76;100.00;101573.03;4933386;29;20853;-73
2021/04/23 03:48:26;;;;;;;12.53;7.50;;;;;;;12.83;100.00;101577.91;4932844;29;20516;-75
2021/04/23 03:50:52;;;;;;;12.40;7.83;;;;;;;12.88;100.00;101574.06;4937318;29;20171;-74
2021/04/23 03:53:17;;;;;;;15.27;8.07;;;;;;;12.89;100.00;101569.63;4936433;29;20227;-74
2021/04/23 03:55:51;;;;;;;14.57;8.43;;;;;;;12.92;100.00;101557.09;4936306;29;20248;-74
2021/04/23 03:58:19;;;;;;;21.33;8.33;;;;;;;12.89;100.00;101564.34;4932947;29;20280;-75
2021/04/23 04:00:48;;;;;;;15.33;7.87;;;;;;;13.00;100.00;101567.16;4937137;29;20451;-71
2021/04/23 04:03:15;;;;;;;14.20;8.27;;;;;;;12.96;100.00;101568.28;4936850;29;20421;-71
2021/04/23 04:05:41;;;;;;;14.90;9.53;;;;;;;12.90;100.00;101569.53;4936420;29;20417;-73
2021/04/23 04:08:07;;;;;;;14.07;9.83;;;;;;;12.93;100.00;101571.13;4935075;29;20423;-73
2021/04/23 04:10:34;;;;;;;17.33;10.47;;;;;;;12.99;100.00;101568.09;4936989;29;20425;-73
2021/04/23 04:13:00;;;;;;;16.53;10.47;;;;;;;12.95;100.00;101570.09;4936877;29;20455;-74
2021/04/23 04:15:27;;;;;;;18.77;11.53;;;;;;;13.01;100.00;101574.97;4936595;29;20555;-73
2021/04/23 04:17:53;;;;;;;28.27;12.27;;;;;;;13.09;100.00;101576.28;4936412;29;20180;-73
2021/04/23 04:20:21;;;;;;;26.80;15.63;;;;;;;13.12;100.00;101578.72;4936699;29;20428;-73
2021/04/23 04:22:46;;;;;;;27.27;14.07;;;;;;;13.20;100.00;101576.47;4936512;29;20424;-73
2021/04/23 04:25:25;;;;;;;26.23;14.37;;;;;;;13.33;100.00;101580.84;4936348;29;20944;-73
2021/04/23 04:27:51;;;;;;;37.40;21.70;;;;;;;13.52;100.00;101577.84;4935896;29;20173;-73
2021/04/23 04:30:18;;;;;;;32.93;18.17;;;;;;;13.71;100.00;101569.56;4936348;29;20413;-72
2021/04/23 04:32:44;;;;;;;28.93;18.70;;;;;;;13.84;100.00;101581.03;4936294;29;20491;-72
2021/04/23 04:35:10;;;;;;;25.20;17.97;;;;;;;13.87;100.00;101569.41;4936703;29;20412;-72
2021/04/23 04:37:36;;;;;;;25.57;17.90;;;;;;;13.86;100.00;101573.00;4936485;29;20417;-72
2021/04/23 04:40:02;;;;;;;33.20;19.90;;;;;;;13.77;100.00;101573.59;4936728;29;20424;-73
2021/04/23 04:42:28;;;;;;;41.87;19.70;;;;;;;13.70;100.00;101573.16;4935431;29;20208;-74
2021/04/23 04:45:00;;;;;;;35.67;19.83;;;;;;;13.87;100.00;101566.75;4935407;29;20416;-73
2021/04/23 04:47:26;;;;;;;36.23;19.87;;;;;;;13.80;100.00;101570.75;4936229;29;20165;-72
2021/04/23 04:49:51;;;;;;;37.13;19.80;;;;;;;13.71;100.00;101568.72;4935206;29;20444;-73
2021/04/23 04:52:17;;;;;;;28.40;19.43;;;;;;;13.68;100.00;101575.06;4935299;29;20495;-72
2021/04/23 04:54:42;;;;;;;32.97;20.50;;;;;;;13.68;100.00;101575.06;4935863;29;20224;-76
2021/04/23 04:57:08;;;;;;;35.10;21.70;;;;;;;13.64;100.00;101570.94;4935312;29;20892;-74
2021/04/23 04:59:33;;;;;;;37.17;20.93;;;;;;;13.80;100.00;101568.94;4934976;29;20173;-74
2021/04/23 05:01:59;;;;;;;31.20;19.83;;;;;;;13.87;100.00;101562.31;4945963;29;20196;-73
2021/04/23 05:04:24;;;;;;;29.33;19.07;;;;;;;14.12;100.00;101553.56;4955089;29;20512;-72
2021/04/23 05:06:50;;;;;;;33.37;20.20;;;;;;;14.22;100.00;101547.66;4954759;29;20656;-74
2021/04/23 05:09:15;;;;;;;45.10;20.97;;;;;;;14.31;100.00;101555.78;4955052;29;20574;-74
2021/04/23 05:11:41;;;;;;;31.00;19.70;;;;;;;14.19;100.00;101558.44;4938200;29;20248;-73
2021/04/23 05:14:06;;;;;;;31.80;22.57;;;;;;;14.35;100.00;101562.53;4935990;29;20224;-74
2021/04/23 05:16:32;;;;;;;40.10;25.03;;;;;;;14.51;100.00;101556.22;4935731;29;20161;-73
2021/04/23 05:18:58;;;;;;;36.47;22.70;;;;;;;14.52;100.00;101553.50;4935257;29;20164;-75
2021/04/23 05:21:24;;;;;;;37.50;22.80;;;;;;;14.48;100.00;101549.34;4935536;29;20247;-73
2021/04/23 05:23:50;;;;;;;34.40;22.97;;;;;;;14.35;100.00;101548.47;4935293;29;20224;-75
2021/04/23 05:26:15;;;;;;;39.87;24.37;;;;;;;14.24;100.00;101548.41;4935518;29;20828;-74
2021/04/23 05:28:41;;;;;;;49.10;26.03;;;;;;;14.25;100.00;101555.38;4935304;29;20220;-73
2021/04/23 05:31:06;;;;;;;37.17;23.13;;;;;;;14.28;100.00;101550.72;4934929;29;20177;-74
2021/04/23 05:33:32;;;;;;;44.00;24.97;;;;;;;14.37;100.00;101557.16;4935639;29;20199;-73
2021/04/23 05:35:57;;;;;;;45.33;23.40;;;;;;;14.42;100.00;101553.22;4934760;29;20208;-75
2021/04/23 05:38:23;;;;;;;44.60;24.17;;;;;;;14.49;100.00;101558.13;4935252;29;20248;-73
2021/04/23 05:40:49;;;;;;;40.50;22.10;;;;;;;14.64;100.00;101559.69;4935314;29;20622;-77
2021/04/23 05:43:16;;;;;;;37.43;19.63;;;;;;;14.55;100.00;101563.84;4935153;29;20173;-76
2021/04/23 05:45:43;;;;;;;22.83;15.10;;;;;;;14.69;100.00;101553.13;4934620;29;20428;-74
2021/04/23 05:48:10;;;;;;;21.00;13.83;;;;;;;14.52;100.00;101558.78;4933035;29;20413;-76
2021/04/23 05:50:37;;;;;;;15.70;11.70;;;;;;;14.34;100.00;101560.00;4933779;29;20417;-74
2021/04/23 05:53:04;;;;;;;22.50;12.83;;;;;;;14.17;100.00;101566.47;4934443;29;22046;-74
2021/04/23 05:55:32;;;;;;;17.83;10.73;;;;;;;14.11;100.00;101562.44;4934384;29;20825;-73
2021/04/23 05:58:00;;;;;;;21.27;11.40;;;;;;;14.03;100.00;101564.75;4933308;29;20800;-75
2021/04/23 06:00:32;;;;;;;16.40;11.10;;;;;;;13.89;100.00;101570.97;4934875;29;20433;-73
2021/04/23 06:02:59;;;;;;;19.73;10.83;;;;;;;13.92;100.00;101571.75;4935155;29;20412;-76
2021/04/23 06:05:28;;;;;;;18.73;11.33;;;;;;;13.84;100.00;101580.19;4934576;29;20420;-76
2021/04/23 06:08:04;;;;;;;21.40;11.73;;;;;;;13.74;100.00;101582.56;4934567;29;20432;-76
2021/04/23 06:10:30;;;;;;;20.30;11.97;;;;;;;13.74;100.00;101579.06;4943371;29;20832;-75
2021/04/23 06:12:57;;;;;;;16.77;11.30;;;;;;;13.76;100.00;101579.84;4945594;28;20583;-75
2021/04/23 06:15:23;;;;;;;22.13;12.63;;;;;;;13.87;100.00;101574.69;4935292;29;20402;-76
2021/04/23 06:17:48;;;;;;;24.00;12.97;;;;;;;13.89;100.00;101568.31;4940124;29;20408;-73
2021/04/23 06:20:18;;;;;;;23.43;14.30;;;;;;;14.10;100.00;101568.69;4948920;29;20472;-77
2021/04/23 06:22:43;;;;;;;20.87;14.00;;;;;;;14.20;100.00;101568.03;4934748;29;20207;-77
2021/04/23 06:25:12;;;;;;;19.93;12.03;;;;;;;14.16;100.00;101567.41;4934095;29;20417;-74
2021/04/23 06:27:39;;;;;;;20.93;14.03;;;;;;;14.18;100.00;101562.03;4934280;29;20429;-75
2021/04/23 06:30:09;;;;;;;23.03;14.43;;;;;;;14.30;100.00;101571.75;4949214;29;20405;-76
2021/04/23 06:32:36;;;;;;;24.73;14.30;;;;;;;14.38;100.00;101564.16;4934675;29;20409;-76
2021/04/23 06:35:01;;;;;;;19.57;11.67;;;;;;;14.37;100.00;101559.81;4933830;29;20428;-75
2021/04/23 06:37:27;;;;;;;17.80;12.13;;;;;;;14.29;100.00;101556.84;4934455;29;20409;-77
2021/04/23 06:39:52;;;;;;;18.00;12.40;;;;;;;14.41;100.00;101562.13;4945973;29;20248;-73
2021/04/23 06:42:18;;;;;;;17.17;12.23;;;;;;;14.43;100.00;101556.72;4951076;28;20208;-75
2021/04/23 06:44:43;;;;;;;21.47;13.07;;;;;;;14.52;100.00;101561.41;4933744;29;20181;-73
2021/04/23 06:47:09;;;;;;;22.40;12.90;;;;;;;14.82;100.00;101553.13;4933790;29;20660;-77
2021/04/23 06:49:35;;;;;;;27.77;18.73;;;;;;;15.00;100.00;101561.53;4933937;29;20177;-76
2021/04/23 06:52:00;;;;;;;21.03;13.30;;;;;;;15.21;100.00;101565.25;4934593;29;20586;-75
2021/04/23 06:54:26;;;;;;;25.70;16.07;;;;;;;15.37;100.00;101553.53;4933093;29;20235;-76
2021/04/23 06:56:52;;;;;;;25.73;13.60;;;;;;;15.55;100.00;101544.22;4933225;29;20256;-75
2021/04/23 06:59:17;;;;;;;25.63;14.00;;;;;;;15.66;100.00;101525.75;4934205;29;20169;-77
2021/04/23 07:01:43;;;;;;;30.73;14.20;;;;;;;15.92;100.00;101522.94;4943594;29;20565;-75
2021/04/23 07:04:08;;;;;;;23.43;14.10;;;;;;;16.38;100.00;101522.84;4939808;29;20561;-76
2021/04/23 07:06:39;;;;;;;23.13;14.03;;;;;;;16.49;100.00;101533.47;4939325;29;20256;-76
2021/04/23 07:09:05;;;;;;;33.63;14.10;;;;;;;16.77;100.00;101539.25;4935802;29;20236;-76
2021/04/23 07:11:31;;;;;;;27.43;14.10;;;;;;;17.04;100.00;101533.53;4933620;29;20473;-76
2021/04/23 07:13:56;;;;;;;28.37;15.20;;;;;;;17.08;100.00;101535.00;4933321;29;20516;-74
2021/04/23 07:16:22;;;;;;;22.33;13.67;;;;;;;17.30;100.00;101544.69;4932549;29;20169;-74
2021/04/23 07:18:47;;;;;;;20.80;13.20;;;;;;;17.52;100.00;101541.09;4933481;29;20606;-75
2021/04/23 07:21:13;;;;;;;23.27;15.70;;;;;;;17.46;100.00;101543.31;4934482;29;20207;-76
2021/04/23 07:23:38;;;;;;;22.40;14.57;;;;;;;17.47;100.00;101552.13;4933956;29;20239;-76
2021/04/23 07:26:04;;;;;;;23.07;12.70;;;;;;;17.18;100.00;101554.50;4933838;29;20153;-75
2021/04/23 07:28:29;;;;;;;16.70;12.60;;;;;;;16.98;100.00;101561.41;4934407;29;20169;-75
2021/04/23 07:30:55;;;;;;;27.33;14.40;;;;;;;17.02;100.00;101562.03;4933477;29;20241;-76
2021/04/23 07:33:20;;;;;;;18.53;12.03;;;;;;;16.88;100.00;101550.72;4933370;29;20177;-75
2021/04/23 07:35:48;;;;;;;23.37;12.93;;;;;;;17.17;100.00;101558.13;4935156;29;20604;-73
2021/04/23 07:38:13;;;;;;;21.97;13.77;;;;;;;17.57;100.00;101552.19;4948053;29;20227;-74
2021/04/23 07:40:39;;;;;;;18.87;12.73;;;;;;;17.66;100.00;101562.03;4950624;29;20412;-74
2021/04/23 07:43:05;;;;;;;33.00;13.83;;;;;;;17.87;100.00;101564.75;4933188;29;20180;-75
2021/04/23 07:45:31;;;;;;;18.60;11.63;;;;;;;18.07;100.00;101571.06;4930972;29;20173;-75
2021/04/23 07:47:57;;;;;;;34.03;12.57;;;;;;;18.01;100.00;101572.41;4932529;29;20428;-75
2021/04/23 07:50:25;;;;;;;31.37;11.80;;;;;;;18.21;100.00;101560.06;4933191;29;20153;-75
2021/04/23 07:52:52;;;;;;;34.17;12.43;;;;;;;18.57;100.00;101558.69;4931991;29;20515;-75
2021/04/23 07:55:18;;;;;;;26.03;12.23;;;;;;;18.83;100.00;101551.13;4932467;29;20464;-77
2021/04/23 07:57:45;;;;;;;15.30;8.97;;;;;;;18.73;100.00;101544.91;4933068;29;20816;-74
2021/04/23 08:00:12;;;;;;;25.20;9.87;;;;;;;18.95;100.00;101543.84;4933661;29;20406;-75
2021/04/23 08:02:40;;;;;;;14.20;9.33;;;;;;;19.16;100.00;101549.09;4933664;29;20515;-75
2021/04/23 08:05:06;;;;;;;17.33;10.73;;;;;;;19.22;100.00;101549.38;4933782;29;20449;-75
2021/04/23 08:07:31;;;;;;;18.37;9.40;;;;;;;19.25;100.00;101553.56;4933596;29;20433;-73
2021/04/23 08:09:57;;;;;;;11.50;7.43;;;;;;;18.85;100.00;101558.00;4933284;29;20429;-73
2021/04/23 08:12:22;;;;;;;10.63;7.33;;;;;;;18.64;100.00;101556.34;4933586;29;20172;-71
2021/04/23 08:14:48;;;;;;;8.80;7.33;;;;;;;18.80;100.00;101562.03;4937462;29;20180;-72
2021/04/23 08:17:14;;;;;;;19.83;7.23;;;;;;;18.47;100.00;101553.34;4952527;29;20215;-71
2021/04/23 08:19:42;;;;;;;12.13;7.17;;;;;;;18.58;100.00;101561.22;4951340;29;20452;-75
2021/04/23 08:22:08;;;;;;;18.67;7.10;;;;;;;18.42;100.00;101563.53;4944526;29;20197;-73
2021/04/23 08:24:34;;;;;;;12.00;6.17;;;;;;;18.48;100.00;101559.50;4933100;29;20550;-74
2021/04/23 08:27:00;;;;;;;10.80;5.93;;;;;;;18.67;100.00;101561.44;4933611;29;20180;-71
2021/04/23 08:29:25;;;;;;;15.00;7.33;;;;;;;18.93;100.00;101565.31;4932487;29;20630;-74
2021/04/23 08:31:51;;;;;;;11.83;5.80;;;;;;;18.91;100.00;101561.94;4939543;29;20212;-73
2021/04/23 08:34:16;;;;;;;13.30;6.90;;;;;;;19.34;100.00;101558.91;4952005;28;20172;-74
2021/04/23 08:36:42;;;;;;;11.43;5.30;;;;;;;19.31;100.00;101555.69;4954825;29;20244;-75
2021/04/23 08:39:10;;;;;;;7.50;5.03;;;;;;;18.67;100.00;101548.13;4955359;29;20222;-73
2021/04/23 08:41:38;;;;;;;7.50;6.03;;;;;;;18.75;100.00;101559.78;4946064;29;20244;-73
2021/04/23 08:44:05;;;;;;;10.50;6.30;;;;;;;18.65;100.00;101568.66;4936380;29;20549;-75
2021/04/23 08:46:32;;;;;;;13.03;6.83;;;;;;;18.75;100.00;101558.94;4935730;29;20480;-75
2021/04/23 08:48:59;;;;;;;13.60;7.13;;;;;;;18.78;100.00;101556.00;4934824;29;20405;-73
2021/04/23 08:51:26;;;;;;;9.80;6.57;;;;;;;18.42;100.00;101554.72;4936790;29;20420;-79
2021/04/23 08:53:53;;;;;;;14.70;8.30;;;;;;;18.36;100.00;101563.22;4935230;29;20792;-73
2021/04/23 08:56:19;;;;;;;14.50;8.27;;;;;;;18.61;100.00;101559.28;4943058;29;21000;-74
2021/04/23 08:58:46;;;;;;;20.23;8.50;;;;;;;18.52;100.00;101566.25;4940578;29;20571;-73
2021/04/23 09:01:13;;;;;;;15.43;8.43;;;;;;;18.25;100.00;101561.50;4935129;29;20448;-73
2021/04/23 09:03:39;;;;;;;12.10;8.10;;;;;;;18.41;100.00;101569.00;4935381;29;20413;-74
2021/04/23 09:06:13;;;;;;;26.70;10.07;;;;;;;18.51;100.00;101562.75;4935506;29;20471;-74
2021/04/23 09:09:06;;;;;;;13.47;11.00;;;;;;;18.70;100.00;101562.00;4934041;29;20524;-74
2021/04/23 09:11:43;;;;;;;21.10;13.77;;;;;;;18.84;100.00;101561.63;4937035;29;20454;-73
2021/04/23 09:14:19;;;;;;;22.83;15.43;;;;;;;19.03;100.00;101560.81;4939275;29;20562;-73
2021/04/23 09:16:45;;;;;;;18.83;12.87;;;;;;;18.93;100.00;101559.13;4936221;29;20420;-76
2021/04/23 09:19:32;;;;;;;19.77;13.43;;;;;;;18.77;100.00;101560.50;4934175;29;20421;-75
2021/04/23 09:22:08;;;;;;;29.10;14.77;;;;;;;19.02;100.00;101545.81;4933836;29;20207;-73
2021/04/23 09:24:40;;;;;;;24.00;13.90;;;;;;;19.43;100.00;101541.25;4935241;29;20432;-71
2021/04/23 09:27:20;;;;;;;16.60;11.00;;;;;;;19.51;100.00;101541.41;4941492;29;20440;-72
2021/04/23 09:29:53;;;;;;;14.13;10.60;;;;;;;19.76;100.00;101534.66;4954335;29;20396;-74
2021/04/23 09:32:26;;;;;;;15.70;10.53;;;;;;;19.82;100.00;101526.09;4952612;29;20412;-73
2021/04/23 09:35:00;;;;;;;10.37;7.60;;;;;;;20.00;100.00;101520.84;4934669;29;20404;-73
2021/04/23 09:37:30;;;;;;;10.73;6.63;;;;;;;20.08;100.00;101525.47;4945784;29;20515;-72
2021/04/23 09:40:09;;;;;;;10.50;7.60;;;;;;;20.24;100.00;101526.53;4951881;29;20404;-75
2021/04/23 09:42:48;;;;;;;13.20;8.27;;;;;;;20.57;100.00;101532.34;4951892;29;20482;-72
2021/04/23 09:45:16;;;;;;;19.90;9.20;;;;;;;20.63;100.00;101523.75;4951278;29;20420;-73
2021/04/23 09:47:42;;;;;;;9.07;6.07;;;;;;;20.29;100.00;101525.25;4951617;28;20474;-73
2021/04/23 09:50:09;;;;;;;15.10;6.40;;;;;;;20.34;100.00;101515.84;4952447;29;20466;-71
2021/04/23 09:52:47;;;;;;;13.10;6.40;;;;;;;20.45;100.00;101514.81;4944548;28;20436;-74
2021/04/23 09:55:13;;;;;;;14.17;7.50;;;;;;;20.74;100.00;101518.19;4934004;29;20976;-73
2021/04/23 09:57:48;;;;;;;9.43;5.57;;;;;;;20.78;100.00;101522.25;4934392;29;20456;-73
2021/04/23 10:00:14;;;;;;;11.23;6.40;;;;;;;20.94;100.00;101528.78;4934484;29;20413;-74
2021/04/23 10:02:40;;;;;;;8.63;5.60;;;;;;;20.87;100.00;101511.66;4934296;29;20925;-76
2021/04/23 10:05:06;;;;;;;11.77;4.90;;;;;;;20.66;100.00;101518.09;4934298;29;20940;-75
2021/04/23 10:07:33;;;;;;;13.00;6.30;;;;;;;20.92;100.00;101525.38;4934383;29;20169;-71
2021/04/23 10:10:05;;;;;;;8.93;5.30;;;;;;;21.08;100.00;101519.38;4934012;29;20433;-74
2021/04/23 10:12:37;;;;;;;8.90;5.70;;;;;;;21.37;100.00;101519.19;4939136;29;21045;-75
2021/04/23 10:15:15;;;;;;;13.80;6.67;;;;;;;21.34;100.00;101525.69;4952947;29;20413;-72
2021/04/23 10:17:42;;;;;;;23.30;13.67;;;;;;;21.42;91.89;101528.44;4948663;29;20408;-73
2021/04/23 10:20:11;;;;;;;14.43;7.63;;;;;;;22.01;86.79;101526.03;4934218;29;20418;-74
2021/04/23 10:22:37;;;;;;;11.13;6.60;;;;;;;22.25;79.19;101523.53;4933575;29;20515;-73
2021/04/23 10:25:05;;;;;;;13.10;8.23;;;;;;;21.97;81.13;101520.16;4933540;29;20417;-74
2021/04/23 10:27:33;;;;;;;12.63;6.20;;;;;;;21.58;80.68;101530.41;4933024;29;20515;-75
2021/04/23 10:30:04;;;;;;;11.13;6.93;;;;;;;21.60;82.63;101531.06;4938192;29;20524;-73
2021/04/23 10:32:30;;;;;;;9.00;4.70;;;;;;;21.72;81.22;101527.19;4933463;29;20480;-75
2021/04/23 10:34:57;;;;;;;11.90;8.80;;;;;;;22.01;82.93;101521.53;4933031;29;20417;-75
2021/04/23 10:37:23;;;;;;;6.03;5.00;;;;;;;22.50;77.79;101529.00;4934340;29;20201;-74
2021/04/23 10:39:49;;;;;;;18.37;15.33;;;;;;;22.42;80.76;101527.13;4934195;29;20564;-75
2021/04/23 10:42:45;;;;;;;13.13;8.87;;;;;;;22.26;77.18;101530.56;4936176;29;20204;-73
2021/04/23 10:45:38;;;;;;;10.43;5.13;;;;;;;22.16;79.78;101524.50;4934690;29;20553;-72
2021/04/23 10:48:32;;;;;;;9.53;5.43;;;;;;;22.04;78.06;101539.09;4934570;29;20420;-73
2021/04/23 10:51:01;;;;;;;7.20;4.90;;;;;;;22.06;78.27;101521.03;4933582;29;20928;-74
2021/04/23 10:53:26;;;;;;;5.80;4.63;;;;;;;22.17;76.21;101530.69;4940480;29;20426;-75
2021/04/23 10:56:06;;;;;;;9.20;4.80;;;;;;;21.88;77.49;101526.44;4953138;28;20459;-72
2021/04/23 10:58:32;;;;;;;6.10;4.13;;;;;;;22.36;72.67;101509.84;4941319;29;20224;-75
2021/04/23 11:01:00;;;;;;;6.67;5.60;;;;;;;23.15;70.45;101516.66;4933887;29;20865;-73
2021/04/23 11:03:32;;;;;;;8.07;4.70;;;;;;;23.58;67.20;101516.50;4933032;29;20259;-72
2021/04/23 11:06:27;;;;;;;6.30;4.40;;;;;;;23.26;69.38;101524.38;4934374;29;20467;-77
2021/04/23 11:08:58;;;;;;;12.20;5.90;;;;;;;23.13;72.25;101515.16;4919744;29;20532;-71
2021/04/23 11:11:26;;;;;;;6.27;4.43;;;;;;;23.05;75.00;101515.13;4930983;29;20421;-74